Погода Абасолона 2 недели

Гуанахуато, Мексика

03 - 16 марта
  • 03марта
    Сегодня
    +10°
    +31°
    Ясно и безоблачно
    ВремяПогодаТемператураВлажностьДавлениеВетер, м/сВероятность осадков
    00:00Небольшая облачность+17°C35 %621 мм2.9 м/с2 %
    03:00Ясно и безоблачно+13°C50 %619 мм2.0 м/с2 %
    06:00Ясно и безоблачно+11°C65 %619 мм1.3 м/с2 %
    09:00Ясно и безоблачно+17°C46 %623 мм1.1 м/с2 %
    12:00Ясно и безоблачно+26°C21 %624 мм2.7 м/с2 %
    15:00Ясно и безоблачно+31°C12 %622 мм3.9 м/с2 %
    18:00Ясно и безоблачно+29°C14 %621 мм3.3 м/с2 %
    21:00Ясно и безоблачно+21°C33 %620 мм3.5 м/с2 %
  • 04марта
    Понедельник
    +9°
    +31°
    Ясно и безоблачно
    ВремяПогодаТемператураВлажностьДавлениеВетер, м/сВероятность осадков
    00:00Ясно и безоблачно+17°C40 %620 мм2.1 м/с2 %
    03:00Ясно и безоблачно+13°C51 %619 мм2.1 м/с2 %
    06:00Ясно и безоблачно+11°C61 %618 мм1.9 м/с2 %
    09:00Ясно и безоблачно+17°C46 %621 мм1.4 м/с2 %
    12:00Практически безоблачно+27°C21 %623 мм2.8 м/с2 %
    15:00Ясно и безоблачно+31°C12 %621 мм3.7 м/с2 %
    18:00Ясно и безоблачно+30°C14 %620 мм3.8 м/с2 %
    21:00Ясно и безоблачно+22°C24 %620 мм3.4 м/с2 %
  • 05марта
    Вторник
    +9°
    +31°
    Ясно и безоблачно
    ВремяПогодаТемператураВлажностьДавлениеВетер, м/сВероятность осадков
    00:00Облачно с прояснениями+17°C31 %620 мм2.0 м/с2 %
    03:00Небольшая облачность+12°C46 %618 мм2.1 м/с2 %
    06:00Ясно и безоблачно+10°C59 %617 мм1.3 м/с2 %
    09:00Практически безоблачно+17°C37 %621 мм1.2 м/с2 %
    12:00Облачно с прояснениями+27°C18 %623 мм1.8 м/с2 %
    15:00Ясно и безоблачно+31°C10 %621 мм3.9 м/с2 %
    18:00Ясно и безоблачно+29°C10 %621 мм3.6 м/с2 %
    21:00Практически безоблачно+21°C26 %619 мм1.9 м/с2 %
  • 06марта
    Среда
    +11°
    +33°
    Небольшая облачность
    ВремяПогодаТемператураВлажностьДавлениеВетер, м/сВероятность осадков
    00:00Облачно с прояснениями+17°C30 %618 мм2.2 м/с2 %
    03:00Небольшая облачность+13°C40 %617 мм1.2 м/с2 %
    06:00Небольшая облачность+10°C59 %616 мм1.1 м/с2 %
    09:00Ясно и безоблачно+17°C37 %621 мм1.0 м/с2 %
    12:00Практически безоблачно+28°C19 %623 мм1.8 м/с2 %
    15:00Небольшая облачность+32°C13 %621 мм2.9 м/с2 %
    18:00Ясно и безоблачно+31°C13 %620 мм3.3 м/с2 %
    21:00Ясно и безоблачно+23°C24 %620 мм3.6 м/с2 %
  • 07марта
    Четверг
    +10°
    +31°
    Практически безоблачно
    ВремяПогодаТемператураВлажностьДавлениеВетер, м/сВероятность осадков
    00:00Ясно и безоблачно+17°C39 %619 мм2.1 м/с2 %
    03:00Небольшая облачность+13°C51 %617 мм1.8 м/с2 %
    06:00Ясно и безоблачно+12°C57 %617 мм1.9 м/с2 %
    09:00Небольшая облачность+18°C41 %621 мм0.5 м/с2 %
    12:00Ясно и безоблачно+28°C21 %623 мм3.2 м/с2 %
    15:00Практически безоблачно+30°C15 %621 мм3.6 м/с2 %
    18:00Ясно и безоблачно+31°C9 %620 мм3.1 м/с2 %
    21:00Ясно и безоблачно+22°C13 %620 мм3.3 м/с2 %
Мы используем cookies
Соглашаюсь